Accueil
METAR-TAF:

METAR-TAF

Aéroports :

Perpignan, France

Aéroport de Perpignan-Rivesaltes

latitude: 42-44N, longitude: 002-52E, altitude: 43 m

Observation

Le bulletin a été fait il y a 19 minutes, à 08:30 UTC
Vent 16 kt de nord/nord-ouest
Température 23°C
Humidité 53%
Pression 1020 hPa
Visibilité 10 km ou plus
pas de nuages en-dessous de 1500 mètres et pas de cumulonimbus.

METAR: LFMP 230830Z AUTO 33016KT CAVOK 23/13 Q1020 NOSIG

Heure: 10:49 (08:49 UTC)

Prévision

Le bulletin a été fait il y a 49 minutes, à 08:00 UTC
Prévision valable du 23 à 09 UTC au 24 à 09 UTC
Vent 12 kt de nord-ouest
Visibilité 10 km ou plus
pas de nuages en-dessous de 1500 mètres et pas de cumulonimbus.
Evoluant progressivement
du 24 à 07 UTC au 24 à 09 UTC
Vent 2 kt de direction variable

TAF: LFMP 230800Z 2309/2409 32012KT CAVOK BECMG 2407/2409 VRB02KT

Observations et prévisions météorologiques de plus de 4000 aéroports (messages METAR et TAF).

Les stations disponibles sont représentées par des disques jaunes et rouges sur la carte.

Passer la souris dessus pour voir le nom de la station.

Cliquer dessus pour voir les observations et prévisions météorologiques.

Pour changer de carte: cliquez sur les boutons verts avec une croix noire pour zoomer, sur le bouton vert avec un tiret pour effectuer un zoom arrière, ou sur les flèches vertes pour les cartes adjacentes.


METAR-TAF: